createdAt,value
2022-12-31T00:00:17.012Z,10.80
2022-12-31T00:02:44.580Z,10.90
2022-12-31T00:05:12.107Z,10.90
2022-12-31T00:10:06.084Z,10.90
2022-12-31T00:12:33.513Z,11.00
2022-12-31T00:15:00.894Z,11.00
2022-12-31T00:17:28.228Z,11.10
2022-12-31T00:19:55.672Z,11.10
2022-12-31T00:22:23.136Z,11.10
2022-12-31T00:24:50.326Z,11.10
2022-12-31T00:27:17.603Z,11.20
2022-12-31T00:29:44.983Z,11.20
2022-12-31T00:32:12.447Z,11.20
2022-12-31T00:34:39.764Z,11.30
2022-12-31T00:37:07.139Z,11.30
2022-12-31T00:39:34.464Z,11.20
2022-12-31T00:42:01.829Z,11.30
2022-12-31T00:44:29.035Z,11.30
2022-12-31T00:46:56.257Z,11.20
2022-12-31T00:49:23.738Z,11.20
2022-12-31T00:51:51.063Z,11.30
2022-12-31T00:54:18.345Z,11.30
2022-12-31T00:56:45.704Z,11.30
2022-12-31T00:59:13.234Z,11.30
2022-12-31T01:01:41.118Z,11.40
2022-12-31T01:04:15.032Z,11.40
2022-12-31T01:06:43.092Z,11.50
2022-12-31T01:09:12.241Z,11.50
2022-12-31T01:11:41.408Z,11.50
2022-12-31T01:14:15.107Z,11.50
2022-12-31T01:16:51.367Z,11.60
2022-12-31T01:19:22.430Z,11.70
2022-12-31T01:21:50.703Z,11.80
2022-12-31T01:24:18.655Z,11.80
2022-12-31T01:26:46.801Z,11.80
2022-12-31T01:29:14.757Z,11.90
2022-12-31T01:31:42.018Z,12.10
2022-12-31T01:34:09.860Z,12.10
2022-12-31T01:36:38.367Z,12.20
2022-12-31T01:39:07.535Z,12.20
2022-12-31T01:41:44.878Z,12.30
2022-12-31T01:44:12.326Z,12.30
2022-12-31T01:46:44.805Z,12.40
2022-12-31T01:49:29.461Z,12.40
2022-12-31T01:52:21.984Z,12.40
2022-12-31T01:55:00.427Z,12.40
2022-12-31T01:57:28.509Z,12.40
2022-12-31T01:59:58.165Z,12.40
2022-12-31T02:02:26.160Z,12.30
2022-12-31T02:04:57.013Z,12.30
2022-12-31T02:07:24.348Z,12.30
2022-12-31T02:09:52.516Z,12.20
2022-12-31T02:12:19.832Z,12.30
2022-12-31T02:14:50.796Z,12.30
2022-12-31T02:17:23.914Z,12.20
2022-12-31T02:20:28.815Z,12.30
2022-12-31T02:23:29.791Z,12.20
2022-12-31T02:26:15.909Z,12.30
2022-12-31T02:28:52.300Z,12.30
2022-12-31T02:31:27.374Z,12.30
2022-12-31T02:34:05.166Z,12.30
2022-12-31T02:36:42.362Z,12.30
2022-12-31T02:39:11.019Z,12.30
2022-12-31T02:41:50.097Z,12.30
2022-12-31T02:44:37.080Z,12.30
2022-12-31T02:47:23.022Z,12.30
2022-12-31T02:50:13.614Z,12.30
2022-12-31T02:53:08.265Z,12.30
2022-12-31T02:56:00.254Z,12.30
2022-12-31T02:59:20.570Z,12.30
2022-12-31T03:02:12.952Z,12.30
2022-12-31T03:04:47.124Z,12.30
2022-12-31T03:07:22.976Z,12.30
2022-12-31T03:09:50.636Z,12.20
2022-12-31T03:12:38.428Z,12.30
2022-12-31T03:15:20.291Z,12.20
2022-12-31T03:18:04.431Z,12.20
2022-12-31T03:20:53.232Z,12.30
2022-12-31T03:23:30.216Z,12.30
2022-12-31T03:25:58.757Z,12.30
2022-12-31T03:28:28.638Z,12.20
2022-12-31T03:30:59.161Z,12.10
2022-12-31T03:33:30.030Z,12.10
2022-12-31T03:35:57.505Z,12.00
2022-12-31T03:38:24.812Z,12.00
2022-12-31T03:40:53.285Z,11.90
2022-12-31T03:43:20.936Z,12.00
2022-12-31T03:45:51.932Z,12.00
2022-12-31T03:48:19.908Z,12.00
2022-12-31T03:50:47.097Z,12.10
2022-12-31T03:53:15.355Z,12.10
2022-12-31T03:55:42.669Z,12.20
2022-12-31T03:58:09.925Z,12.30
2022-12-31T04:00:37.150Z,12.40
2022-12-31T04:03:04.396Z,12.50
2022-12-31T04:05:32.426Z,12.40
2022-12-31T04:07:59.730Z,12.40
2022-12-31T04:10:26.920Z,12.40
2022-12-31T04:12:54.227Z,12.30
2022-12-31T04:15:22.041Z,12.40
2022-12-31T04:17:49.371Z,12.30
2022-12-31T04:20:16.657Z,12.30
2022-12-31T04:22:44.533Z,12.30
2022-12-31T04:25:13.059Z,12.30
2022-12-31T04:27:43.781Z,12.30
2022-12-31T04:30:13.291Z,12.40
2022-12-31T04:32:40.891Z,12.30
2022-12-31T04:35:09.040Z,12.40
2022-12-31T04:37:36.479Z,12.40
2022-12-31T04:40:06.576Z,12.40
2022-12-31T04:42:35.241Z,12.40
2022-12-31T04:45:02.698Z,12.40
2022-12-31T04:47:30.210Z,12.50
2022-12-31T04:49:57.603Z,12.50
2022-12-31T04:52:24.812Z,12.50
2022-12-31T04:54:52.056Z,12.50
2022-12-31T04:57:19.359Z,12.50
2022-12-31T04:59:46.604Z,12.50
2022-12-31T05:02:14.073Z,12.40
2022-12-31T05:04:41.505Z,12.40
2022-12-31T05:07:09.002Z,12.40
2022-12-31T05:09:36.326Z,12.40
2022-12-31T05:12:03.709Z,12.30
2022-12-31T05:14:30.969Z,12.20
2022-12-31T05:16:59.480Z,12.10
2022-12-31T05:19:26.803Z,12.10
2022-12-31T05:22:12.546Z,11.90
2022-12-31T05:24:40.153Z,11.90
2022-12-31T05:27:07.323Z,11.90
2022-12-31T05:29:34.524Z,11.80
2022-12-31T05:32:01.805Z,11.80
2022-12-31T05:34:29.173Z,11.90
2022-12-31T05:36:56.396Z,11.90
2022-12-31T05:39:23.722Z,12.00
2022-12-31T05:41:51.954Z,12.00
2022-12-31T05:44:19.405Z,12.10
2022-12-31T05:46:47.410Z,12.10
2022-12-31T05:49:14.671Z,12.10
2022-12-31T05:51:41.984Z,12.20
2022-12-31T05:54:09.273Z,12.10
2022-12-31T05:56:37.089Z,12.10
2022-12-31T05:59:04.911Z,12.20
2022-12-31T06:01:32.406Z,12.20
2022-12-31T06:04:00.676Z,12.20
2022-12-31T06:06:28.456Z,12.30
2022-12-31T06:08:55.807Z,12.30
2022-12-31T06:11:23.193Z,12.30
2022-12-31T06:13:50.619Z,12.30
2022-12-31T06:16:17.910Z,12.20
2022-12-31T06:18:47.800Z,12.20
2022-12-31T06:21:16.176Z,12.20
2022-12-31T06:23:43.503Z,12.20
2022-12-31T06:26:10.914Z,12.30
2022-12-31T06:28:38.253Z,12.20
2022-12-31T06:31:08.237Z,12.30
2022-12-31T06:33:35.607Z,12.30
2022-12-31T06:36:05.916Z,12.20
2022-12-31T06:38:35.134Z,12.30
2022-12-31T06:41:10.552Z,12.30
2022-12-31T06:43:39.196Z,12.30
2022-12-31T06:46:08.672Z,12.30
2022-12-31T06:48:36.825Z,12.30
2022-12-31T06:51:17.012Z,12.30
2022-12-31T06:53:46.213Z,12.30
2022-12-31T06:56:18.761Z,12.30
2022-12-31T06:58:47.088Z,12.40
2022-12-31T07:01:33.208Z,12.40
2022-12-31T07:04:38.292Z,12.40
2022-12-31T07:07:44.841Z,12.40
2022-12-31T07:10:27.266Z,12.50
2022-12-31T07:13:23.610Z,12.50
2022-12-31T07:16:09.014Z,12.50
2022-12-31T07:18:45.416Z,12.40
2022-12-31T07:21:19.385Z,12.50
2022-12-31T07:23:46.905Z,12.50
2022-12-31T07:26:32.710Z,12.50
2022-12-31T07:29:19.046Z,12.60
2022-12-31T07:32:23.360Z,12.70
2022-12-31T07:34:53.579Z,12.80
2022-12-31T07:37:30.150Z,12.90
2022-12-31T07:40:51.136Z,12.90
2022-12-31T07:43:50.778Z,13.00
2022-12-31T07:46:43.027Z,13.20
2022-12-31T07:49:13.949Z,13.20
2022-12-31T07:51:42.023Z,13.40
2022-12-31T07:54:13.958Z,13.40
2022-12-31T07:56:43.058Z,13.50
2022-12-31T07:59:40.811Z,13.60
2022-12-31T08:02:34.533Z,13.60
2022-12-31T08:05:25.508Z,13.80
2022-12-31T08:08:11.389Z,13.90
2022-12-31T08:10:44.002Z,14.00
2022-12-31T08:13:12.616Z,14.00
2022-12-31T08:15:41.130Z,14.10
2022-12-31T08:18:09.203Z,14.10
2022-12-31T08:20:45.581Z,14.10
2022-12-31T08:23:21.707Z,14.20
2022-12-31T08:26:15.095Z,14.20
2022-12-31T08:29:03.620Z,14.30
2022-12-31T08:31:57.909Z,14.40
2022-12-31T08:34:33.412Z,14.50
2022-12-31T08:37:16.313Z,14.50
2022-12-31T08:40:11.355Z,14.60
2022-12-31T08:42:48.185Z,14.60
2022-12-31T08:45:47.295Z,14.70
2022-12-31T08:48:37.888Z,14.70
2022-12-31T08:51:05.909Z,14.80
2022-12-31T08:53:35.069Z,14.80
2022-12-31T08:56:12.842Z,14.80
2022-12-31T08:59:06.817Z,14.90
2022-12-31T09:01:56.081Z,15.00
2022-12-31T09:04:45.329Z,15.00
2022-12-31T09:07:14.121Z,15.00
2022-12-31T09:10:07.838Z,15.00
2022-12-31T09:12:56.351Z,15.00
2022-12-31T09:15:33.908Z,15.00
2022-12-31T09:18:01.529Z,15.10
2022-12-31T09:20:42.348Z,15.10
2022-12-31T09:23:11.463Z,15.20
2022-12-31T09:26:00.745Z,15.20
2022-12-31T09:28:53.251Z,15.40
2022-12-31T09:31:49.933Z,15.40
2022-12-31T09:34:41.308Z,15.40
2022-12-31T09:37:41.320Z,15.40
2022-12-31T09:40:23.713Z,15.40
2022-12-31T09:43:16.055Z,15.50
2022-12-31T09:46:02.266Z,15.50
2022-12-31T09:49:09.585Z,15.60
2022-12-31T09:51:54.901Z,15.60
2022-12-31T09:54:22.230Z,15.60
2022-12-31T09:57:14.494Z,15.60
2022-12-31T09:59:50.853Z,15.60
2022-12-31T10:02:59.719Z,15.70
2022-12-31T10:05:30.205Z,15.70
2022-12-31T10:08:29.660Z,15.70
2022-12-31T10:11:05.522Z,15.80
2022-12-31T10:13:44.904Z,15.80
2022-12-31T10:16:34.196Z,15.90
2022-12-31T10:19:40.215Z,15.80
2022-12-31T10:22:38.585Z,15.90
2022-12-31T10:25:38.737Z,16.00
2022-12-31T10:28:20.488Z,16.00
2022-12-31T10:31:38.741Z,16.10
2022-12-31T10:34:16.647Z,16.10
2022-12-31T10:36:57.900Z,16.00
2022-12-31T10:39:51.493Z,16.10
2022-12-31T10:42:48.484Z,16.20
2022-12-31T10:45:52.126Z,16.30
2022-12-31T10:48:59.338Z,16.40
2022-12-31T10:52:10.394Z,16.60
2022-12-31T10:55:05.521Z,16.70
2022-12-31T10:57:51.603Z,16.90
2022-12-31T11:00:19.785Z,17.20
2022-12-31T11:03:29.649Z,17.40
2022-12-31T11:06:24.435Z,17.30
2022-12-31T11:09:00.896Z,17.20
2022-12-31T11:12:12.765Z,17.30
2022-12-31T11:14:59.325Z,17.40
2022-12-31T11:17:29.869Z,17.10
2022-12-31T11:20:28.116Z,17.00
2022-12-31T11:23:14.499Z,16.80
2022-12-31T11:25:54.348Z,16.80
2022-12-31T11:28:39.874Z,16.70
2022-12-31T11:31:18.964Z,16.70
2022-12-31T11:34:07.679Z,16.90
2022-12-31T11:36:50.134Z,17.00
2022-12-31T11:39:39.899Z,17.00
2022-12-31T11:42:19.543Z,17.00
2022-12-31T11:44:59.683Z,17.00
2022-12-31T11:47:29.945Z,17.10
2022-12-31T11:50:34.013Z,17.40
2022-12-31T11:53:08.244Z,18.00
2022-12-31T11:55:47.636Z,18.70
2022-12-31T11:58:17.552Z,19.50
2022-12-31T12:00:53.239Z,19.70
2022-12-31T12:03:20.685Z,20.00
2022-12-31T12:05:47.948Z,20.70
2022-12-31T12:08:16.843Z,21.40
2022-12-31T12:11:00.206Z,21.20
2022-12-31T12:13:28.196Z,21.80
2022-12-31T12:15:59.178Z,21.90
2022-12-31T12:18:40.954Z,21.60
2022-12-31T12:21:23.056Z,21.70
2022-12-31T12:24:02.353Z,21.60
2022-12-31T12:26:37.678Z,21.80
2022-12-31T12:29:16.872Z,21.30
2022-12-31T12:31:56.163Z,21.50
2022-12-31T12:34:40.882Z,21.30
2022-12-31T12:37:33.261Z,21.00
2022-12-31T12:40:33.441Z,21.50
2022-12-31T12:43:02.881Z,21.30
2022-12-31T12:45:47.666Z,21.10
2022-12-31T12:48:43.939Z,20.60
2022-12-31T12:51:26.838Z,20.80
2022-12-31T12:54:15.859Z,21.00
2022-12-31T12:57:04.503Z,21.60
2022-12-31T12:59:57.740Z,21.50
2022-12-31T13:02:52.737Z,21.30
2022-12-31T13:05:57.243Z,21.40
2022-12-31T13:08:42.476Z,21.10
2022-12-31T13:11:39.091Z,20.90
2022-12-31T13:14:33.040Z,21.30
2022-12-31T13:17:45.228Z,21.10
2022-12-31T13:20:30.571Z,20.80
2022-12-31T13:23:15.625Z,21.10
2022-12-31T13:25:48.458Z,20.90
2022-12-31T13:28:18.310Z,21.00
2022-12-31T13:31:07.250Z,21.20
2022-12-31T13:33:59.837Z,21.10
2022-12-31T13:36:30.067Z,20.90
2022-12-31T13:39:02.620Z,20.70
2022-12-31T13:41:36.534Z,20.50
2022-12-31T13:44:22.571Z,20.50
2022-12-31T13:47:23.935Z,20.20
2022-12-31T13:50:02.848Z,20.40
2022-12-31T13:52:51.574Z,20.30
2022-12-31T13:55:24.558Z,20.10
2022-12-31T13:58:12.447Z,19.60
2022-12-31T14:01:15.087Z,19.30
2022-12-31T14:03:51.413Z,19.00
2022-12-31T14:06:27.719Z,19.00
2022-12-31T14:08:54.983Z,19.00
2022-12-31T14:11:31.169Z,19.00
2022-12-31T14:14:36.776Z,18.70
2022-12-31T14:17:17.841Z,18.60
2022-12-31T14:19:58.412Z,18.50
2022-12-31T14:22:36.820Z,18.40
2022-12-31T14:25:15.616Z,18.20
2022-12-31T14:27:45.235Z,18.10
2022-12-31T14:30:21.470Z,17.90
2022-12-31T14:33:13.245Z,17.80
2022-12-31T14:36:18.564Z,17.60
2022-12-31T14:39:18.359Z,17.40
2022-12-31T14:41:58.097Z,17.20
2022-12-31T14:44:42.008Z,16.90
2022-12-31T14:47:27.388Z,16.60
2022-12-31T14:50:05.928Z,16.40
2022-12-31T14:52:35.921Z,16.30
2022-12-31T14:55:23.040Z,16.10
2022-12-31T15:00:40.085Z,15.90
2022-12-31T15:03:16.879Z,15.70
2022-12-31T15:06:01.922Z,15.60
2022-12-31T15:08:53.640Z,15.50
2022-12-31T15:11:50.023Z,15.40
2022-12-31T15:14:37.186Z,15.30
2022-12-31T15:17:05.327Z,15.10
2022-12-31T15:19:51.935Z,15.00
2022-12-31T15:22:36.965Z,14.90
2022-12-31T15:25:28.499Z,14.90
2022-12-31T15:28:00.864Z,14.80
2022-12-31T15:30:45.987Z,14.70
2022-12-31T15:33:29.047Z,14.60
2022-12-31T15:35:57.841Z,14.50
2022-12-31T15:38:35.088Z,14.40
2022-12-31T15:41:19.600Z,14.30
2022-12-31T15:44:01.166Z,14.30
2022-12-31T15:46:33.141Z,14.30
2022-12-31T15:49:09.005Z,14.20
2022-12-31T15:51:50.394Z,14.20
2022-12-31T15:54:31.651Z,14.30
2022-12-31T15:57:03.020Z,14.20
2022-12-31T15:59:33.134Z,14.30
2022-12-31T16:02:00.993Z,14.20
2022-12-31T16:04:33.228Z,14.20
2022-12-31T16:07:03.000Z,14.30
2022-12-31T16:09:35.926Z,14.20
2022-12-31T16:12:10.994Z,14.10
2022-12-31T16:14:42.659Z,14.10
2022-12-31T16:17:30.131Z,14.10
2022-12-31T16:19:59.173Z,14.00
2022-12-31T16:22:38.756Z,14.00
2022-12-31T16:25:30.083Z,14.00
2022-12-31T16:27:55.685Z,14.00
2022-12-31T16:30:27.540Z,13.90
2022-12-31T16:32:58.087Z,13.90
2022-12-31T16:35:36.948Z,14.00
2022-12-31T16:38:17.594Z,13.90
2022-12-31T16:41:03.344Z,14.00
2022-12-31T16:43:38.436Z,14.00
2022-12-31T16:46:27.031Z,14.00
2022-12-31T16:48:59.626Z,14.00
2022-12-31T16:51:30.941Z,13.90
2022-12-31T16:53:59.551Z,14.00
2022-12-31T16:56:36.906Z,13.90
2022-12-31T16:59:31.920Z,13.90
2022-12-31T17:02:05.066Z,13.90
2022-12-31T17:04:32.771Z,13.90
2022-12-31T17:07:39.050Z,13.90
2022-12-31T17:10:19.576Z,13.80
2022-12-31T17:13:28.140Z,13.80
2022-12-31T17:15:46.237Z,13.70
2022-12-31T17:18:23.190Z,13.70
2022-12-31T17:20:52.665Z,13.70
2022-12-31T17:23:28.422Z,13.70
2022-12-31T17:26:06.771Z,13.80
2022-12-31T17:28:43.602Z,13.80
2022-12-31T17:31:34.149Z,13.70
2022-12-31T17:34:13.753Z,13.70
2022-12-31T17:37:03.371Z,13.60
2022-12-31T17:39:47.258Z,13.60
2022-12-31T17:42:26.466Z,13.60
2022-12-31T17:44:57.773Z,13.50
2022-12-31T17:47:32.800Z,13.50
2022-12-31T17:50:24.274Z,13.50
2022-12-31T17:52:56.753Z,13.50
2022-12-31T17:55:24.183Z,13.40
2022-12-31T17:57:55.878Z,13.40
2022-12-31T18:00:26.056Z,13.40
2022-12-31T18:02:53.660Z,13.40
2022-12-31T18:05:23.274Z,13.30
2022-12-31T18:07:51.009Z,13.30
2022-12-31T18:10:20.133Z,13.20
2022-12-31T18:12:48.942Z,13.10
2022-12-31T18:15:19.474Z,13.10
2022-12-31T18:17:47.203Z,13.00
2022-12-31T18:20:14.585Z,13.00
2022-12-31T18:22:44.153Z,13.00
2022-12-31T18:25:21.804Z,13.00
2022-12-31T18:27:50.209Z,13.10
2022-12-31T18:30:18.230Z,13.10
2022-12-31T18:32:46.844Z,13.10
2022-12-31T18:36:06.676Z,13.10
2022-12-31T18:38:15.943Z,13.10
2022-12-31T18:40:46.995Z,13.00
2022-12-31T18:43:20.214Z,13.10
2022-12-31T18:45:49.377Z,13.10
2022-12-31T18:48:17.941Z,13.00
2022-12-31T18:50:46.478Z,13.00
2022-12-31T18:53:22.690Z,13.00
2022-12-31T18:55:53.146Z,13.00
2022-12-31T18:58:20.835Z,13.00
2022-12-31T19:00:51.080Z,13.00
2022-12-31T19:03:24.907Z,13.10
2022-12-31T19:05:52.624Z,13.10
2022-12-31T19:08:21.754Z,13.00
2022-12-31T19:10:50.516Z,13.10
2022-12-31T19:13:19.986Z,13.10
2022-12-31T19:15:52.579Z,13.10
2022-12-31T19:18:20.242Z,13.10
2022-12-31T19:20:47.926Z,13.00
2022-12-31T19:23:18.207Z,13.00
2022-12-31T19:25:48.131Z,13.00
2022-12-31T19:28:18.830Z,12.90
2022-12-31T19:30:46.411Z,12.90
2022-12-31T19:33:14.993Z,13.00
2022-12-31T19:35:42.870Z,12.90
2022-12-31T19:38:19.641Z,12.90
2022-12-31T19:40:48.438Z,12.90
2022-12-31T19:43:17.716Z,12.90
2022-12-31T19:45:45.794Z,12.90
2022-12-31T19:48:18.508Z,12.90
2022-12-31T19:50:48.357Z,12.80
2022-12-31T19:53:22.422Z,12.80
2022-12-31T19:55:50.606Z,12.80
2022-12-31T19:58:25.773Z,12.70
2022-12-31T20:00:58.442Z,12.80
2022-12-31T20:03:29.458Z,12.80
2022-12-31T20:06:08.755Z,12.90
2022-12-31T20:08:38.076Z,13.00
2022-12-31T20:11:15.483Z,13.10
2022-12-31T20:13:43.187Z,13.20
2022-12-31T20:16:14.093Z,13.20
2022-12-31T20:18:42.967Z,13.20
2022-12-31T20:21:36.707Z,13.20
2022-12-31T20:24:04.529Z,13.20
2022-12-31T20:26:33.135Z,13.20
2022-12-31T20:29:02.619Z,13.20
2022-12-31T20:31:34.084Z,13.20
2022-12-31T20:34:06.215Z,13.20
2022-12-31T20:36:39.794Z,13.30
2022-12-31T20:39:07.917Z,13.20
2022-12-31T20:41:35.255Z,13.20
2022-12-31T20:44:02.644Z,13.20
2022-12-31T20:46:31.209Z,13.20
2022-12-31T20:49:00.465Z,13.20
2022-12-31T20:51:30.321Z,13.10
2022-12-31T20:54:03.025Z,13.10
2022-12-31T20:56:32.674Z,13.10
2022-12-31T20:59:00.408Z,13.10
2022-12-31T21:01:41.812Z,13.00
2022-12-31T21:04:15.385Z,13.00
2022-12-31T21:06:43.155Z,13.10
2022-12-31T21:09:10.670Z,13.10
2022-12-31T21:11:56.384Z,13.00
2022-12-31T21:14:23.854Z,13.00
2022-12-31T21:16:51.314Z,13.10
2022-12-31T21:19:18.710Z,13.10
2022-12-31T21:21:48.252Z,13.10
2022-12-31T21:24:23.315Z,13.00
2022-12-31T21:26:51.820Z,13.00
2022-12-31T21:29:19.014Z,13.00
2022-12-31T21:31:46.366Z,13.00
2022-12-31T21:34:13.647Z,13.10
2022-12-31T21:36:40.827Z,13.00
2022-12-31T21:39:08.096Z,13.00
2022-12-31T21:41:53.535Z,13.10
2022-12-31T21:44:23.630Z,13.20
2022-12-31T21:47:36.448Z,13.20
2022-12-31T21:50:06.312Z,13.10
2022-12-31T21:52:35.223Z,13.10
2022-12-31T21:55:23.638Z,13.10
2022-12-31T21:58:24.855Z,13.10
2022-12-31T22:00:58.037Z,13.10
2022-12-31T22:03:27.639Z,13.10
2022-12-31T22:06:03.296Z,13.10
2022-12-31T22:08:31.647Z,13.10
2022-12-31T22:11:02.145Z,13.10
2022-12-31T22:13:29.348Z,13.10
2022-12-31T22:16:04.724Z,13.00
2022-12-31T22:18:39.090Z,13.00
2022-12-31T22:21:18.191Z,13.00
2022-12-31T22:23:48.259Z,12.90
2022-12-31T22:26:17.120Z,12.90
2022-12-31T22:28:45.756Z,12.90
2022-12-31T22:31:14.946Z,12.90
2022-12-31T22:33:43.366Z,12.90
2022-12-31T22:36:19.619Z,12.90
2022-12-31T22:38:47.832Z,12.90
2022-12-31T22:41:20.659Z,12.80
2022-12-31T22:44:02.594Z,12.80
2022-12-31T22:46:31.219Z,12.80
2022-12-31T22:48:59.956Z,12.80
2022-12-31T22:51:57.397Z,12.90
2022-12-31T22:54:17.285Z,12.90
2022-12-31T22:56:44.574Z,12.90
2022-12-31T22:59:11.830Z,12.80
2022-12-31T23:01:39.145Z,12.70
2022-12-31T23:04:06.722Z,12.70
2022-12-31T23:06:43.550Z,12.70
2022-12-31T23:09:31.280Z,12.70
2022-12-31T23:11:59.222Z,12.80
2022-12-31T23:14:45.427Z,12.80
2022-12-31T23:17:37.240Z,12.70
2022-12-31T23:20:24.817Z,12.70
2022-12-31T23:23:10.741Z,12.60
2022-12-31T23:25:46.580Z,12.60
2022-12-31T23:28:25.247Z,12.60
2022-12-31T23:30:52.845Z,12.50
2022-12-31T23:33:25.840Z,12.50
2022-12-31T23:36:04.665Z,12.50
2022-12-31T23:38:31.974Z,12.50
2022-12-31T23:40:59.169Z,12.60
2022-12-31T23:43:26.974Z,12.60
2022-12-31T23:45:54.279Z,12.70
2022-12-31T23:48:21.582Z,12.70
2022-12-31T23:50:53.368Z,12.50
2022-12-31T23:53:22.748Z,12.50
2022-12-31T23:55:50.526Z,12.50
2022-12-31T23:58:17.828Z,12.40
